Time;durP1;ratioP1;P1;durP2;ratioP2;P2;SDS_P1;SDS_P2;PMS_P1;PMS_P2;Temp;Humidity;BMP_temperature;BMP_pressure;BME280_temperature;BME280_humidity;BME280_pressure;Samples;Min_cycle;Max_cycle;Signal;HPM_P1;HPM_P2
2023/01/09 00:00:47;;;;;;;334.55;174.48;;;25.60;99.90;;;;;;5036149;28;20030;-68
2023/01/09 00:03:14;;;;;;;104.25;66.30;;;25.70;99.90;;;;;;5036350;28;20028;-67
2023/01/09 00:05:40;;;;;;;79.40;47.88;;;25.70;99.90;;;;;;5036388;28;20025;-68
2023/01/09 00:08:07;;;;;;;47.63;31.38;;;25.80;99.90;;;;;;5036100;28;20021;-68
2023/01/09 00:10:34;;;;;;;30.30;17.90;;;25.70;99.90;;;;;;5036119;28;20029;-68
2023/01/09 00:13:00;;;;;;;24.83;12.65;;;25.80;99.90;;;;;;5036149;28;20386;-68
2023/01/09 00:15:27;;;;;;;24.73;16.08;;;25.80;99.90;;;;;;5035894;28;20474;-68
2023/01/09 00:17:53;;;;;;;25.85;18.50;;;25.80;99.90;;;;;;5036178;28;20021;-67
2023/01/09 00:20:20;;;;;;;21.35;15.23;;;25.80;99.90;;;;;;5036056;28;20032;-68
2023/01/09 00:22:46;;;;;;;20.00;12.95;;;25.80;99.90;;;;;;5035664;28;20029;-67
2023/01/09 00:25:13;;;;;;;19.55;14.18;;;25.80;99.90;;;;;;5035925;28;20031;-68
2023/01/09 00:27:40;;;;;;;22.55;12.05;;;25.80;99.90;;;;;;5035836;28;20036;-66
2023/01/09 00:30:07;;;;;;;15.63;8.98;;;25.80;99.90;;;;;;5035648;28;20034;-64
2023/01/09 00:32:34;;;;;;;16.98;8.18;;;25.90;99.90;;;;;;5035739;28;20522;-66
2023/01/09 00:35:01;;;;;;;19.02;7.82;;;25.90;99.90;;;;;;5035674;28;20391;-66
2023/01/09 00:37:27;;;;;;;15.35;7.00;;;25.90;99.90;;;;;;5035529;28;20030;-66
2023/01/09 00:39:54;;;;;;;12.98;6.97;;;25.90;99.90;;;;;;5035656;28;20028;-66
2023/01/09 00:42:24;;;;;;;11.93;7.72;;;25.90;99.90;;;;;;5035833;28;20013;-66
2023/01/09 00:44:55;;;;;;;14.65;7.35;;;25.80;99.90;;;;;;5035449;28;20027;-66
2023/01/09 00:47:27;;;;;;;14.35;6.65;;;25.90;99.90;;;;;;5035641;28;20538;-66
2023/01/09 00:49:54;;;;;;;;;;;25.90;99.90;;;;;;5035853;28;20489;-66
2023/01/09 00:52:21;;;;;;;11.85;7.30;;;25.90;99.90;;;;;;5035304;28;20388;-66
2023/01/09 00:54:48;;;;;;;16.00;7.15;;;26.00;99.90;;;;;;5035434;28;20104;-65
2023/01/09 00:57:15;;;;;;;14.13;7.75;;;26.00;99.90;;;;;;5035771;28;20104;-66
2023/01/09 00:59:42;;;;;;;15.63;9.07;;;26.00;99.90;;;;;;5035135;28;20074;-66
2023/01/09 01:02:09;;;;;;;27.50;12.20;;;26.00;99.90;;;;;;5035322;28;20535;-66
2023/01/09 01:09:57;;;;;;;19.10;13.55;;;26.10;99.90;;;;;;5034888;28;20025;-64
2023/01/09 01:12:23;;;;;;;19.73;11.93;;;26.00;99.90;;;;;;5038628;28;20261;-66
2023/01/09 01:14:52;;;;;;;18.17;9.75;;;26.00;99.90;;;;;;5053756;28;20378;-67
2023/01/09 01:17:18;;;;;;;11.25;9.38;;;26.10;99.90;;;;;;5054926;28;20032;-65
2023/01/09 01:19:45;;;;;;;18.88;11.95;;;26.10;99.90;;;;;;5049109;28;20516;-66
2023/01/09 01:22:11;;;;;;;17.17;12.32;;;26.10;99.90;;;;;;5054833;28;20021;-66
2023/01/09 01:24:38;;;;;;;16.73;13.45;;;26.10;99.90;;;;;;5054875;28;20021;-66
2023/01/09 01:27:04;;;;;;;15.95;13.85;;;26.20;99.90;;;;;;5054553;28;20108;-67
2023/01/09 01:29:31;;;;;;;18.13;12.20;;;26.20;99.90;;;;;;5054534;28;20037;-68
2023/01/09 01:31:57;;;;;;;13.25;10.00;;;26.20;99.90;;;;;;5054451;28;20039;-66
2023/01/09 01:34:24;;;;;;;16.85;11.10;;;26.20;99.90;;;;;;5054441;28;20021;-67
2023/01/09 01:36:51;;;;;;;12.30;9.85;;;26.20;99.90;;;;;;5054530;28;20031;-66
2023/01/09 01:39:17;;;;;;;14.15;9.15;;;26.20;99.90;;;;;;5054440;28;20053;-66
2023/01/09 01:41:44;;;;;;;14.50;11.85;;;26.20;99.90;;;;;;5054274;28;20124;-67
2023/01/09 01:44:50;;;;;;;24.25;14.13;;;26.20;99.90;;;;;;5054280;28;20401;-65
2023/01/09 01:47:19;;;;;;;17.23;13.15;;;26.20;99.90;;;;;;5054246;28;20040;-66
2023/01/09 01:49:46;;;;;;;24.38;12.38;;;26.30;99.90;;;;;;5054329;28;20028;-66
2023/01/09 01:52:14;;;;;;;17.45;12.13;;;26.30;99.90;;;;;;5054203;28;20020;-66
2023/01/09 01:54:42;;;;;;;22.58;14.15;;;26.30;99.90;;;;;;5053989;28;20056;-66
2023/01/09 01:57:09;;;;;;;18.48;10.43;;;26.30;99.90;;;;;;5054069;28;20048;-67
2023/01/09 01:59:41;;;;;;;13.80;8.05;;;26.40;99.90;;;;;;5053999;28;20025;-64
2023/01/09 02:02:09;;;;;;;11.27;8.38;;;26.40;99.90;;;;;;5054297;28;20025;-65
2023/01/09 02:04:39;;;;;;;12.27;8.10;;;26.50;99.90;;;;;;5053950;28;20075;-66
2023/01/09 02:07:08;;;;;;;13.07;9.75;;;26.50;99.90;;;;;;5053863;28;20025;-67
2023/01/09 02:09:36;;;;;;;21.80;12.02;;;26.50;99.90;;;;;;5053918;28;20013;-66
2023/01/09 02:12:22;;;;;;;19.85;15.02;;;26.50;99.90;;;;;;5053802;28;20478;-65
2023/01/09 02:14:54;;;;;;;20.52;14.02;;;26.50;99.90;;;;;;5053683;28;20508;-67
2023/01/09 02:17:37;;;;;;;16.58;12.60;;;26.50;99.90;;;;;;5053872;28;20425;-66
2023/01/09 02:20:44;;;;;;;18.35;13.23;;;26.50;99.90;;;;;;5053637;28;20021;-67
2023/01/09 02:23:21;;;;;;;15.73;11.98;;;26.60;99.90;;;;;;5031350;28;20035;-66
2023/01/09 02:26:17;;;;;;;15.43;10.95;;;26.60;99.90;;;;;;5031408;28;20033;-67
2023/01/09 02:29:04;;;;;;;17.30;11.45;;;26.70;99.90;;;;;;5031663;28;20036;-66
2023/01/09 02:31:59;;;;;;;21.08;12.93;;;26.70;99.90;;;;;;4972757;28;20504;-66
2023/01/09 02:34:47;;;;;;;22.02;14.35;;;26.80;99.90;;;;;;4972781;28;20043;-66
2023/01/09 02:37:14;;;;;;;18.52;13.05;;;26.80;99.90;;;;;;4972152;28;20093;-66
2023/01/09 02:39:43;;;;;;;15.70;13.55;;;26.80;99.90;;;;;;4972577;28;20026;-66
2023/01/09 02:42:15;;;;;;;23.55;16.52;;;26.90;99.90;;;;;;4972862;28;20035;-65
2023/01/09 02:44:43;;;;;;;22.27;16.08;;;26.90;99.90;;;;;;4972677;28;20034;-66
2023/01/09 02:47:18;;;;;;;21.25;16.15;;;26.90;99.90;;;;;;4972576;28;20365;-65
2023/01/09 02:49:49;;;;;;;31.33;17.15;;;27.00;99.90;;;;;;4972364;28;20131;-65
2023/01/09 02:52:55;;;;;;;22.92;16.73;;;27.00;99.90;;;;;;4972348;28;20085;-66
2023/01/09 02:55:30;;;;;;;26.35;17.75;;;27.10;99.90;;;;;;4877313;29;20064;-67
2023/01/09 02:58:00;;;;;;;25.38;14.95;;;27.10;99.90;;;;;;4877687;29;20041;-66
2023/01/09 03:00:33;;;;;;;23.45;16.10;;;27.20;99.90;;;;;;4877483;29;20073;-65
2023/01/09 03:03:07;;;;;;;37.42;28.48;;;27.30;99.90;;;;;;4877625;29;20037;-66
2023/01/09 03:05:56;;;;;;;18.27;14.30;;;27.40;99.90;;;;;;4877584;29;20048;-66
2023/01/09 03:08:37;;;;;;;18.63;14.75;;;27.40;99.90;;;;;;4900832;29;20040;-66
2023/01/09 03:11:06;;;;;;;24.13;16.88;;;27.40;99.90;;;;;;4933900;29;20118;-63
2023/01/09 03:13:55;;;;;;;25.15;16.67;;;27.40;99.90;;;;;;5011812;22;20092;-65
2023/01/09 03:16:30;;;;;;;27.70;16.98;;;27.40;99.90;;;;;;4972188;28;20042;-66
2023/01/09 03:18:58;;;;;;;29.13;15.77;;;27.50;99.90;;;;;;4972480;28;20087;-66
2023/01/09 03:21:26;;;;;;;21.58;16.08;;;27.50;99.90;;;;;;4972553;28;20035;-65
2023/01/09 03:23:56;;;;;;;22.45;15.18;;;27.50;99.90;;;;;;4972392;28;20031;-65
2023/01/09 03:26:23;;;;;;;24.85;15.20;;;27.50;99.90;;;;;;4972458;28;20108;-65
2023/01/09 03:28:50;;;;;;;21.67;15.35;;;27.60;99.90;;;;;;4972528;28;20035;-66
2023/01/09 03:31:17;;;;;;;26.60;17.05;;;27.60;99.90;;;;;;4972162;28;20110;-65
2023/01/09 03:33:44;;;;;;;22.15;14.15;;;27.80;99.90;;;;;;4975652;28;20455;-65
2023/01/09 03:36:12;;;;;;;22.70;14.80;;;27.80;99.90;;;;;;4976203;28;20106;-66
2023/01/09 03:38:39;;;;;;;21.33;15.85;;;27.80;99.90;;;;;;4976337;28;20027;-65
2023/01/09 03:41:06;;;;;;;26.58;15.98;;;27.90;99.90;;;;;;4976084;28;20444;-65
2023/01/09 03:43:33;;;;;;;22.42;15.55;;;27.90;99.90;;;;;;4975983;28;20035;-65
2023/01/09 03:46:01;;;;;;;21.65;16.92;;;27.90;99.90;;;;;;4976118;28;20461;-65
2023/01/09 03:48:27;;;;;;;28.25;18.42;;;28.00;99.90;;;;;;4975839;28;20066;-65
2023/01/09 03:50:55;;;;;;;33.88;20.80;;;28.00;99.90;;;;;;4976171;28;20038;-65
2023/01/09 03:53:24;;;;;;;22.98;19.05;;;28.10;99.90;;;;;;4975682;28;20051;-65
2023/01/09 03:55:53;;;;;;;28.02;20.33;;;28.10;99.90;;;;;;4975537;28;20035;-65
2023/01/09 03:58:20;;;;;;;50.88;32.83;;;28.20;99.90;;;;;;4975584;28;20346;-64
2023/01/09 04:00:47;;;;;;;41.80;28.30;;;28.30;99.90;;;;;;4975595;28;20066;-65
2023/01/09 04:03:16;;;;;;;32.90;24.40;;;28.30;99.90;;;;;;4975568;28;20520;-64
2023/01/09 04:05:43;;;;;;;26.73;20.02;;;28.30;99.90;;;;;;4975318;28;20107;-63
2023/01/09 04:08:10;;;;;;;23.83;17.73;;;28.30;99.90;;;;;;4975529;28;20499;-65
2023/01/09 04:10:37;;;;;;;31.55;17.30;;;28.30;99.90;;;;;;4975425;28;20050;-65
2023/01/09 04:13:03;;;;;;;26.58;19.00;;;28.30;99.90;;;;;;5001290;28;20049;-64
2023/01/09 04:15:30;;;;;;;25.10;16.67;;;28.40;99.90;;;;;;5016226;28;20037;-65
2023/01/09 04:17:56;;;;;;;16.33;12.35;;;28.50;99.90;;;;;;5007993;28;20030;-65
2023/01/09 04:20:23;;;;;;;22.00;10.57;;;28.50;99.90;;;;;;4996711;28;20046;-65
2023/01/09 04:22:49;;;;;;;13.30;11.73;;;28.60;99.90;;;;;;4996346;28;20022;-65
2023/01/09 04:25:16;;;;;;;16.23;10.15;;;28.60;99.90;;;;;;4996501;28;20027;-65
2023/01/09 04:27:42;;;;;;;16.10;12.35;;;28.70;99.90;;;;;;4996850;28;20383;-64
2023/01/09 04:30:09;;;;;;;11.77;10.20;;;28.70;99.90;;;;;;4996263;28;20030;-65
2023/01/09 04:32:36;;;;;;;13.00;9.95;;;28.70;99.90;;;;;;4996429;28;20030;-66
2023/01/09 04:35:03;;;;;;;12.27;9.77;;;28.80;99.90;;;;;;5004653;28;20033;-66
2023/01/09 04:37:29;;;;;;;12.75;11.18;;;28.80;99.90;;;;;;5016205;28;20030;-66
2023/01/09 04:39:56;;;;;;;22.85;15.82;;;28.80;99.90;;;;;;5016306;28;20050;-67
2023/01/09 04:42:23;;;;;;;32.72;18.50;;;28.70;99.90;;;;;;5016807;28;20092;-67
2023/01/09 04:44:52;;;;;;;21.02;12.90;;;28.80;99.90;;;;;;5011905;28;20101;-65
2023/01/09 04:47:20;;;;;;;15.30;10.48;;;28.90;99.90;;;;;;5008462;28;20372;-65
2023/01/09 04:49:47;;;;;;;31.05;21.40;;;28.90;99.90;;;;;;5016254;28;20057;-65
2023/01/09 04:52:13;;;;;;;33.08;24.25;;;28.90;99.90;;;;;;5007716;28;20034;-65
2023/01/09 04:54:40;;;;;;;21.50;17.15;;;28.90;99.90;;;;;;4996623;28;20093;-65
2023/01/09 04:57:06;;;;;;;22.15;14.82;;;29.00;99.90;;;;;;4996191;28;20125;-65
2023/01/09 04:59:33;;;;;;;14.68;9.65;;;29.00;99.90;;;;;;4996007;28;20476;-66
2023/01/09 05:02:00;;;;;;;10.07;7.63;;;29.00;99.90;;;;;;4996856;28;20033;-65
2023/01/09 05:04:26;;;;;;;15.95;8.90;;;29.00;99.90;;;;;;4996632;28;20410;-65
2023/01/09 05:06:53;;;;;;;21.33;14.48;;;29.10;99.90;;;;;;4996613;28;20034;-65
2023/01/09 05:09:20;;;;;;;19.58;11.27;;;29.10;99.90;;;;;;5004498;28;20029;-67
2023/01/09 05:11:47;;;;;;;17.52;11.07;;;29.00;99.90;;;;;;5006107;28;20372;-67
2023/01/09 05:14:14;;;;;;;14.13;10.15;;;29.00;99.90;;;;;;5005255;28;20046;-67
2023/01/09 05:16:40;;;;;;;16.70;13.13;;;29.10;99.90;;;;;;5005692;28;20373;-66
2023/01/09 05:19:07;;;;;;;13.05;11.25;;;29.10;99.90;;;;;;5003476;28;20030;-66
2023/01/09 05:21:33;;;;;;;13.32;8.63;;;29.20;99.90;;;;;;5005308;28;20049;-66
2023/01/09 05:24:00;;;;;;;10.93;7.45;;;29.20;99.90;;;;;;5008424;28;20387;-66
2023/01/09 05:26:26;;;;;;;11.88;7.65;;;29.30;99.90;;;;;;5003443;28;20472;-66
2023/01/09 05:28:56;;;;;;;11.15;8.55;;;29.30;99.90;;;;;;5005287;28;20021;-67
2023/01/09 05:31:24;;;;;;;9.15;8.25;;;29.30;99.90;;;;;;5004414;28;20056;-66
2023/01/09 05:33:51;;;;;;;16.58;9.98;;;29.30;99.90;;;;;;5009496;28;20124;-66
2023/01/09 05:36:18;;;;;;;13.23;8.50;;;29.30;99.90;;;;;;5006291;28;20025;-66
2023/01/09 05:38:44;;;;;;;11.00;8.85;;;29.30;99.90;;;;;;5008694;28;20037;-65
2023/01/09 05:41:11;;;;;;;12.45;7.40;;;29.30;99.90;;;;;;5007936;28;20117;-65
2023/01/09 05:43:37;;;;;;;10.48;7.97;;;29.30;99.90;;;;;;5008505;28;20486;-66
2023/01/09 05:46:04;;;;;;;7.57;6.63;;;29.40;99.90;;;;;;5008398;28;20101;-67
2023/01/09 05:48:31;;;;;;;8.63;7.00;;;29.40;99.90;;;;;;5007952;28;20056;-66
2023/01/09 05:50:57;;;;;;;11.77;8.05;;;29.50;99.90;;;;;;5008027;28;20037;-68
2023/01/09 05:53:24;;;;;;;8.40;7.25;;;29.50;99.90;;;;;;5008192;28;20021;-66
2023/01/09 05:55:50;;;;;;;7.93;7.00;;;29.50;99.90;;;;;;5006092;28;20026;-66
2023/01/09 05:58:16;;;;;;;11.55;9.30;;;29.60;99.90;;;;;;5007475;28;20022;-67
2023/01/09 06:00:43;;;;;;;11.77;8.15;;;29.60;99.90;;;;;;5006829;28;20109;-67
2023/01/09 06:03:09;;;;;;;7.28;6.20;;;29.70;99.90;;;;;;5003048;28;20045;-66
2023/01/09 06:05:36;;;;;;;8.27;6.32;;;29.70;99.90;;;;;;5005493;28;20022;-66
2023/01/09 06:08:03;;;;;;;8.27;6.25;;;29.70;99.90;;;;;;5006251;28;20104;-66
2023/01/09 06:10:29;;;;;;;8.80;6.43;;;29.70;99.90;;;;;;5003642;28;20026;-66
2023/01/09 06:12:56;;;;;;;7.57;6.45;;;29.70;99.90;;;;;;5003122;28;20555;-66
2023/01/09 06:15:22;;;;;;;11.45;7.85;;;29.70;99.90;;;;;;5001024;28;20084;-65
2023/01/09 06:17:48;;;;;;;10.48;7.50;;;29.70;99.90;;;;;;5003449;28;20030;-66
2023/01/09 06:20:15;;;;;;;9.85;7.43;;;29.80;99.90;;;;;;5003727;28;20529;-66
2023/01/09 06:22:44;;;;;;;9.30;6.78;;;29.80;99.90;;;;;;5001693;28;20029;-66
2023/01/09 06:25:11;;;;;;;8.35;6.40;;;29.80;99.90;;;;;;4998191;28;20026;-65
2023/01/09 06:27:38;;;;;;;11.32;6.75;;;29.80;99.90;;;;;;4998483;28;20402;-64
2023/01/09 06:30:05;;;;;;;7.75;5.85;;;29.90;99.90;;;;;;5001852;28;20391;-68
2023/01/09 06:32:31;;;;;;;8.93;6.25;;;29.90;99.90;;;;;;5003326;28;20018;-67
2023/01/09 06:34:58;;;;;;;10.32;5.93;;;29.90;99.90;;;;;;5002827;28;20053;-65
2023/01/09 06:37:25;;;;;;;7.70;6.78;;;29.90;99.90;;;;;;5001234;28;20484;-66
2023/01/09 06:39:53;;;;;;;9.85;7.20;;;30.00;99.90;;;;;;5001514;28;20021;-65
2023/01/09 06:42:19;;;;;;;9.18;6.60;;;30.00;99.90;;;;;;5001351;28;20019;-67
2023/01/09 06:44:46;;;;;;;10.55;6.70;;;30.00;99.90;;;;;;4999614;28;20026;-66
2023/01/09 06:47:12;;;;;;;7.50;5.28;;;30.00;99.90;;;;;;5001461;28;20148;-66
2023/01/09 06:49:39;;;;;;;10.45;5.60;;;30.00;99.90;;;;;;5001190;28;20068;-66
2023/01/09 06:52:06;;;;;;;9.73;6.15;;;30.00;99.90;;;;;;4999590;28;20355;-67
2023/01/09 06:54:34;;;;;;;11.98;6.82;;;30.00;99.90;;;;;;5002776;28;20168;-66
2023/01/09 06:57:00;;;;;;;7.60;5.93;;;30.00;99.90;;;;;;5003135;28;20026;-68
2023/01/09 06:59:27;;;;;;;10.05;7.35;;;30.00;99.90;;;;;;5001409;28;20052;-68
2023/01/09 07:01:53;;;;;;;9.07;6.30;;;30.00;99.90;;;;;;5003137;28;20022;-66
2023/01/09 07:04:22;;;;;;;9.55;6.25;;;30.00;99.90;;;;;;5001042;28;20014;-68
2023/01/09 07:06:49;;;;;;;14.20;9.85;;;30.10;99.90;;;;;;5003766;28;20538;-67
2023/01/09 07:09:16;;;;;;;11.85;8.60;;;30.10;99.90;;;;;;5002676;28;20025;-68
2023/01/09 07:11:42;;;;;;;29.25;20.27;;;30.20;99.90;;;;;;4996103;28;20022;-68
2023/01/09 07:14:09;;;;;;;34.08;23.30;;;30.20;99.90;;;;;;4997950;28;20124;-68
2023/01/09 07:16:35;;;;;;;22.23;17.42;;;30.20;99.90;;;;;;4993737;28;20083;-68
2023/01/09 07:19:02;;;;;;;20.83;16.00;;;30.20;99.90;;;;;;4993656;28;20038;-68
2023/01/09 07:21:28;;;;;;;10.95;8.05;;;30.30;99.90;;;;;;4993561;28;20023;-68
2023/01/09 07:23:55;;;;;;;10.75;8.90;;;30.30;99.90;;;;;;4993801;28;20040;-68
2023/01/09 07:26:22;;;;;;;9.52;8.27;;;30.20;99.90;;;;;;4993629;28;20031;-68
2023/01/09 07:28:48;;;;;;;8.95;7.32;;;30.20;99.90;;;;;;4993696;28;20033;-68
2023/01/09 07:31:15;;;;;;;6.75;6.03;;;30.20;99.90;;;;;;4993593;28;20030;-68
2023/01/09 07:33:41;;;;;;;10.57;7.03;;;30.20;99.90;;;;;;4993786;28;20050;-68
2023/01/09 07:36:08;;;;;;;7.78;6.20;;;30.20;99.90;;;;;;4993406;28;20488;-68
2023/01/09 07:38:35;;;;;;;9.32;6.50;;;30.20;99.90;;;;;;4993435;28;20045;-68
2023/01/09 07:41:01;;;;;;;9.57;6.55;;;30.30;99.90;;;;;;4993499;28;20424;-68
2023/01/09 07:43:28;;;;;;;8.75;5.75;;;30.20;99.90;;;;;;4993521;28;20076;-68
2023/01/09 07:45:54;;;;;;;7.35;6.00;;;30.30;99.90;;;;;;4993282;28;20438;-68
2023/01/09 07:48:20;;;;;;;10.95;7.07;;;30.20;99.90;;;;;;4993579;28;20038;-69
2023/01/09 07:50:47;;;;;;;34.97;23.88;;;30.20;99.90;;;;;;5000796;28;20030;-67
2023/01/09 07:53:13;;;;;;;71.30;53.38;;;30.30;99.90;;;;;;5012599;28;20022;-64
2023/01/09 07:55:42;;;;;;;40.67;27.23;;;30.30;99.90;;;;;;5012674;28;20061;-64
2023/01/09 07:58:09;;;;;;;35.35;28.80;;;30.30;99.90;;;;;;5012689;28;20479;-64
2023/01/09 08:00:35;;;;;;;60.35;45.83;;;30.30;99.90;;;;;;5012626;28;20108;-64
2023/01/09 08:03:02;;;;;;;16.83;12.38;;;30.30;99.90;;;;;;5012847;28;20014;-64
2023/01/09 08:05:28;;;;;;;11.40;7.18;;;30.30;99.90;;;;;;5012784;28;20018;-64
2023/01/09 08:07:55;;;;;;;12.18;7.20;;;30.20;99.90;;;;;;5012618;28;20030;-64
2023/01/09 08:10:21;;;;;;;9.05;5.47;;;30.30;99.90;;;;;;5012743;28;20030;-65
2023/01/09 08:12:48;;;;;;;6.88;6.07;;;30.30;99.90;;;;;;5012740;28;20042;-64
2023/01/09 08:15:16;;;;;;;21.55;17.83;;;30.20;99.90;;;;;;5012453;28;20030;-64
2023/01/09 08:17:44;;;;;;;66.60;49.80;;;30.20;99.90;;;;;;5012647;28;20022;-64
2023/01/09 08:20:14;;;;;;;125.22;90.82;;;30.30;99.90;;;;;;5015051;28;20022;-64
2023/01/09 08:22:41;;;;;;;68.38;53.60;;;30.30;99.90;;;;;;5015905;28;20053;-64
2023/01/09 08:25:09;;;;;;;35.83;26.20;;;30.30;99.90;;;;;;5016037;28;20026;-64
2023/01/09 08:27:36;;;;;;;10.90;7.97;;;30.30;99.90;;;;;;5016008;28;20392;-64
2023/01/09 08:30:03;;;;;;;19.98;12.70;;;30.30;99.90;;;;;;5015777;28;20034;-64
2023/01/09 08:32:29;;;;;;;24.55;18.02;;;30.30;99.90;;;;;;5016233;28;20101;-65
2023/01/09 08:34:56;;;;;;;8.50;5.88;;;30.20;99.90;;;;;;5015998;28;20079;-64
2023/01/09 08:37:22;;;;;;;9.65;5.85;;;30.20;99.90;;;;;;5015710;28;20033;-64
2023/01/09 08:39:49;;;;;;;12.93;7.10;;;30.20;99.90;;;;;;5015847;28;20080;-65
2023/01/09 08:47:38;;;;;;;28.70;15.10;;;30.20;99.90;;;;;;5015806;28;20037;-64
2023/01/09 08:50:05;;;;;;;26.83;14.02;;;30.20;99.90;;;;;;5015232;28;20034;-64
2023/01/09 08:52:31;;;;;;;13.10;8.57;;;30.20;99.90;;;;;;5015543;28;20022;-65
2023/01/09 08:54:58;;;;;;;14.63;7.32;;;30.20;99.90;;;;;;5015338;28;20030;-64
2023/01/09 08:57:25;;;;;;;11.45;7.22;;;30.30;99.90;;;;;;5015208;28;20048;-66
2023/01/09 08:59:51;;;;;;;12.75;7.47;;;30.20;99.90;;;;;;5015274;28;20033;-67
2023/01/09 09:02:18;;;;;;;10.40;6.15;;;30.30;99.90;;;;;;5015257;28;20022;-67
2023/01/09 09:04:45;;;;;;;13.27;8.18;;;30.30;99.90;;;;;;5015148;28;20033;-67
2023/01/09 09:07:11;;;;;;;8.00;6.22;;;30.20;99.90;;;;;;5015097;28;20064;-67
2023/01/09 09:09:38;;;;;;;12.63;6.43;;;30.20;99.90;;;;;;5015395;28;20426;-64
2023/01/09 09:12:04;;;;;;;10.60;7.15;;;30.20;99.90;;;;;;5015613;28;20072;-64
2023/01/09 09:17:17;;;;;;;10.25;7.47;;;30.20;99.90;;;;;;5008732;28;20034;-64
2023/01/09 09:19:44;;;;;;;68.22;57.00;;;30.20;99.90;;;;;;5003930;28;20068;-64
2023/01/09 09:22:10;;;;;;;241.80;167.80;;;30.20;99.90;;;;;;5005009;28;20502;-63
2023/01/09 09:24:37;;;;;;;148.85;112.47;;;30.20;99.90;;;;;;5003052;28;20030;-63
2023/01/09 09:27:03;;;;;;;69.55;46.92;;;30.20;99.90;;;;;;5004059;28;20036;-64
2023/01/09 09:29:30;;;;;;;20.00;12.63;;;30.30;99.90;;;;;;5004965;28;20037;-63
2023/01/09 09:31:56;;;;;;;17.63;8.38;;;30.30;99.90;;;;;;5004975;28;20471;-63
2023/01/09 09:34:23;;;;;;;11.73;7.38;;;30.30;99.90;;;;;;5003893;28;20022;-63
2023/01/09 09:36:49;;;;;;;15.93;9.77;;;30.20;99.90;;;;;;5002933;28;20388;-63
2023/01/09 09:39:16;;;;;;;15.38;8.82;;;30.10;99.90;;;;;;5004904;28;20459;-63
2023/01/09 09:45:30;;;;;;;11.07;6.95;;;30.20;99.90;;;;;;5007485;28;20073;-68
2023/01/09 09:48:11;;;;;;;10.52;7.63;;;30.20;99.90;;;;;;5004538;28;20041;-64
2023/01/09 09:51:00;;;;;;;14.35;6.80;;;30.20;99.90;;;;;;5005187;28;20022;-65
2023/01/09 09:53:50;;;;;;;11.13;6.40;;;30.20;99.90;;;;;;5004657;28;20464;-64
2023/01/09 09:56:20;;;;;;;14.27;7.50;;;30.20;99.90;;;;;;4957618;28;20079;-65
2023/01/09 09:58:57;;;;;;;12.13;7.40;;;30.20;99.90;;;;;;4961920;28;20034;-65
2023/01/09 10:01:50;;;;;;;14.57;8.00;;;30.20;99.90;;;;;;4962342;28;20019;-64
2023/01/09 10:04:19;;;;;;;13.70;8.32;;;30.20;99.90;;;;;;4958817;28;20027;-66
2023/01/09 10:06:53;;;;;;;15.50;8.82;;;30.20;99.90;;;;;;4961690;28;20102;-65
2023/01/09 10:09:49;;;;;;;20.00;8.90;;;30.20;99.90;;;;;;4960156;28;20036;-66
2023/01/09 10:12:44;;;;;;;19.58;9.60;;;30.20;99.90;;;;;;4955779;28;20035;-68
2023/01/09 10:15:35;;;;;;;15.63;9.02;;;30.20;99.90;;;;;;4959084;28;20086;-69
2023/01/09 10:18:10;;;;;;;25.42;10.38;;;30.20;99.90;;;;;;4932483;29;20024;-70
2023/01/09 10:21:04;;;;;;;20.88;10.95;;;30.20;99.90;;;;;;4932637;29;20355;-68
2023/01/09 10:23:36;;;;;;;29.05;13.02;;;30.10;99.90;;;;;;4931261;29;20055;-67
2023/01/09 10:26:08;;;;;;;;;;;30.10;99.90;;;;;;4935038;29;20477;-68
2023/01/09 10:28:36;;;;;;;;;;;30.10;99.90;;;;;;4939413;29;19911;-68
2023/01/09 10:31:21;;;;;;;150.07;105.78;;;30.10;99.90;;;;;;4942281;29;19906;-70
2023/01/09 10:33:57;;;;;;;73.90;54.25;;;30.10;99.90;;;;;;4942366;29;20031;-68
2023/01/09 10:36:42;;;;;;;40.53;28.88;;;29.90;99.90;;;;;;4941129;29;20066;-71
2023/01/09 10:39:24;;;;;;;38.40;24.77;;;29.90;99.90;;;;;;4942301;29;20031;-69
2023/01/09 10:42:01;;;;;;;23.23;14.20;;;29.90;99.90;;;;;;4942265;28;20473;-70
2023/01/09 10:44:36;;;;;;;22.75;13.68;;;29.90;99.90;;;;;;4942982;29;20097;-69
2023/01/09 10:47:10;;;;;;;21.08;12.38;;;29.90;99.90;;;;;;4940792;29;20028;-70
2023/01/09 10:49:38;;;;;;;26.75;13.55;;;29.90;99.90;;;;;;4939028;29;20117;-65
2023/01/09 10:52:17;;;;;;;28.10;17.92;;;29.90;99.90;;;;;;4941697;29;20118;-70
2023/01/09 10:54:58;;;;;;;40.42;21.02;;;29.90;99.90;;;;;;4963341;28;20050;-69
2023/01/09 10:57:44;;;;;;;45.30;24.70;;;29.90;99.90;;;;;;5003393;28;20026;-68
2023/01/09 11:00:22;;;;;;;35.83;21.63;;;29.90;99.90;;;;;;4959817;28;20067;-68
2023/01/09 11:02:49;;;;;;;29.10;17.65;;;29.90;99.90;;;;;;4960565;28;20072;-68
2023/01/09 11:05:21;;;;;;;23.77;13.60;;;29.90;99.90;;;;;;4962451;28;20030;-69
2023/01/09 11:07:58;;;;;;;28.67;14.90;;;29.80;99.90;;;;;;4961861;28;20116;-69
2023/01/09 11:10:45;;;;;;;25.23;15.15;;;29.80;99.90;;;;;;4960298;28;20075;-70
2023/01/09 11:13:18;;;;;;;41.25;19.45;;;29.70;99.90;;;;;;4961705;28;20501;-69
2023/01/09 11:15:45;;;;;;;151.15;115.00;;;29.70;99.90;;;;;;4959136;28;20059;-70
2023/01/09 11:18:24;;;;;;;101.10;63.72;;;29.70;99.90;;;;;;4961574;28;20127;-69
2023/01/09 11:20:51;;;;;;;55.75;32.75;;;29.70;99.90;;;;;;4961980;28;20038;-67
2023/01/09 11:23:31;;;;;;;53.70;30.48;;;29.70;99.90;;;;;;4960421;28;20031;-69
2023/01/09 11:26:00;;;;;;;54.28;34.30;;;29.70;99.90;;;;;;4960584;28;20047;-67
2023/01/09 11:28:27;;;;;;;55.88;32.83;;;29.70;99.90;;;;;;4960777;28;20559;-66
2023/01/09 11:31:01;;;;;;;54.10;31.10;;;29.60;99.90;;;;;;4983928;28;20084;-67
2023/01/09 11:33:40;;;;;;;51.55;30.27;;;29.60;99.90;;;;;;5002811;28;20034;-69
2023/01/09 11:36:09;;;;;;;44.30;27.83;;;29.60;99.90;;;;;;5011763;28;20383;-69
2023/01/09 11:38:57;;;;;;;50.50;25.60;;;29.50;99.90;;;;;;5011581;28;20111;-69
2023/01/09 11:41:31;;;;;;;118.22;87.00;;;29.40;99.90;;;;;;5001793;28;20030;-69
2023/01/09 11:44:00;;;;;;;81.85;52.97;;;29.50;99.90;;;;;;5002262;28;20033;-69
2023/01/09 11:46:41;;;;;;;57.65;39.08;;;29.40;99.90;;;;;;5003110;28;20085;-70
2023/01/09 11:49:18;;;;;;;78.75;46.17;;;29.40;99.90;;;;;;5003080;28;20066;-69
2023/01/09 11:51:45;;;;;;;62.63;36.58;;;29.40;99.90;;;;;;5001354;28;20029;-68
2023/01/09 11:54:34;;;;;;;107.70;72.32;;;29.40;99.90;;;;;;5004440;28;20021;-68
2023/01/09 11:57:00;;;;;;;78.95;47.03;;;29.40;99.90;;;;;;5006124;28;20084;-69
2023/01/09 11:59:30;;;;;;;54.97;28.83;;;29.40;99.90;;;;;;5006433;28;20018;-69
2023/01/09 12:01:56;;;;;;;54.60;28.05;;;29.40;99.90;;;;;;5006824;28;20545;-70
2023/01/09 12:04:35;;;;;;;58.40;27.27;;;29.30;99.90;;;;;;5006280;28;20026;-67
2023/01/09 12:07:27;;;;;;;47.90;27.13;;;29.40;99.90;;;;;;5005698;28;20030;-68
2023/01/09 12:10:22;;;;;;;49.63;26.50;;;29.30;99.90;;;;;;5004557;28;20018;-66
2023/01/09 12:12:49;;;;;;;43.67;24.23;;;29.30;99.90;;;;;;5008691;28;20032;-68
2023/01/09 12:15:36;;;;;;;40.95;24.75;;;29.30;99.90;;;;;;5015163;28;20030;-68
2023/01/09 12:18:11;;;;;;;44.25;23.10;;;29.20;99.90;;;;;;4948513;29;20406;-68
2023/01/09 12:20:46;;;;;;;37.42;22.45;;;29.20;99.90;;;;;;4943445;29;20027;-69
2023/01/09 12:23:30;;;;;;;45.53;25.25;;;29.10;99.90;;;;;;4943517;29;20441;-68
2023/01/09 12:26:03;;;;;;;49.47;25.55;;;29.10;99.90;;;;;;4944078;29;20082;-68
2023/01/09 12:28:34;;;;;;;63.30;30.55;;;29.10;99.90;;;;;;4943248;29;20114;-68
2023/01/09 12:31:20;;;;;;;56.33;30.40;;;29.10;99.90;;;;;;4943036;29;20045;-68
2023/01/09 12:34:07;;;;;;;57.40;32.40;;;29.00;99.90;;;;;;4947401;29;20086;-68
2023/01/09 12:37:15;;;;;;;61.83;32.05;;;29.10;99.90;;;;;;4946209;29;20023;-68
2023/01/09 12:39:59;;;;;;;54.55;32.33;;;29.00;99.90;;;;;;4896196;29;20032;-68
2023/01/09 12:42:42;;;;;;;58.78;32.85;;;29.00;99.90;;;;;;4896272;29;20033;-67
2023/01/09 12:45:29;;;;;;;59.45;35.45;;;29.00;99.90;;;;;;4896207;29;20115;-67
2023/01/09 12:48:07;;;;;;;60.08;36.40;;;29.00;99.90;;;;;;4895825;29;20036;-67
2023/01/09 12:50:54;;;;;;;59.50;35.88;;;29.00;99.90;;;;;;4894286;29;20021;-67
2023/01/09 12:53:27;;;;;;;65.82;38.88;;;28.90;99.90;;;;;;4895352;29;20078;-66
2023/01/09 12:56:19;;;;;;;74.10;39.92;;;28.90;99.90;;;;;;4893999;29;20029;-68
2023/01/09 12:59:06;;;;;;;70.78;41.05;;;28.90;99.90;;;;;;4866100;29;20033;-67
2023/01/09 13:01:53;;;;;;;69.20;40.35;;;28.90;99.90;;;;;;4861151;29;20041;-67
2023/01/09 13:04:27;;;;;;;69.80;40.92;;;28.90;99.90;;;;;;4858386;29;20021;-67
2023/01/09 13:07:03;;;;;;;67.97;38.40;;;28.90;99.90;;;;;;4859813;29;20138;-67
2023/01/09 13:09:42;;;;;;;59.05;34.65;;;28.90;99.90;;;;;;4859832;29;20465;-67